createdAt,value
2018-09-22T00:02:10.913Z,80.51
2018-09-22T00:04:39.502Z,80.19
2018-09-22T00:07:08.115Z,80.23
2018-09-22T00:09:36.717Z,80.37
2018-09-22T00:12:05.317Z,80.35
2018-09-22T00:14:34.022Z,81.21
2018-09-22T00:17:02.866Z,81.45
2018-09-22T00:19:31.511Z,81.74
2018-09-22T00:22:00.206Z,82.58
2018-09-22T00:24:28.743Z,83.78
2018-09-22T00:26:57.359Z,84.04
2018-09-22T00:29:25.973Z,85.11
2018-09-22T00:31:54.593Z,85.60
2018-09-22T00:34:23.202Z,86.28
2018-09-22T00:36:52.180Z,87.04
2018-09-22T00:39:20.849Z,87.65
2018-09-22T00:41:49.590Z,88.44
2018-09-22T00:44:18.225Z,88.90
2018-09-22T00:46:46.804Z,90.50
2018-09-22T00:49:15.380Z,89.60
2018-09-22T00:51:43.969Z,90.30
2018-09-22T00:54:12.585Z,88.00
2018-09-22T00:56:41.226Z,85.17
2018-09-22T00:59:10.102Z,88.90
2018-09-22T01:01:38.773Z,91.01
2018-09-22T01:04:07.426Z,93.09
2018-09-22T01:06:36.022Z,96.70
2018-09-22T01:09:06.058Z,96.07
2018-09-22T01:11:34.647Z,97.06
2018-09-22T01:14:03.239Z,96.99
2018-09-22T01:16:31.828Z,96.84
2018-09-22T01:19:00.493Z,94.94
2018-09-22T01:21:29.113Z,91.97
2018-09-22T01:23:57.690Z,90.67
2018-09-22T01:26:26.294Z,90.84
2018-09-22T01:28:55.145Z,89.21
2018-09-22T01:31:23.758Z,90.30
2018-09-22T01:33:52.456Z,92.61
2018-09-22T01:36:21.081Z,94.35
2018-09-22T01:38:49.674Z,94.12
2018-09-22T01:41:18.266Z,93.13
2018-09-22T01:43:46.866Z,92.75
2018-09-22T01:46:15.620Z,93.74
2018-09-22T01:48:44.203Z,92.35
2018-09-22T01:51:12.798Z,91.06
2018-09-22T01:53:41.389Z,90.34
2018-09-22T01:56:09.969Z,88.69
2018-09-22T01:58:38.549Z,87.90
2018-09-22T02:01:07.142Z,88.12
2018-09-22T02:03:35.728Z,87.67
2018-09-22T02:06:04.295Z,86.53
2018-09-22T02:08:32.873Z,86.22
2018-09-22T02:11:01.453Z,87.01
2018-09-22T02:13:30.044Z,87.57
2018-09-22T02:15:58.619Z,85.37
2018-09-22T02:18:27.214Z,85.64
2018-09-22T02:20:55.763Z,83.18
2018-09-22T02:23:24.324Z,78.33
2018-09-22T02:25:52.994Z,79.64
2018-09-22T02:28:21.581Z,75.49
2018-09-22T02:30:50.308Z,74.53
2018-09-22T02:33:18.890Z,73.36
2018-09-22T02:35:47.483Z,73.63
2018-09-22T02:38:16.133Z,74.12
2018-09-22T02:40:44.742Z,73.52
2018-09-22T02:43:13.320Z,71.77
2018-09-22T02:45:41.907Z,72.57
2018-09-22T02:48:10.495Z,71.74
2018-09-22T02:50:39.114Z,72.87
2018-09-22T02:53:07.683Z,72.96
2018-09-22T02:55:36.281Z,71.81
2018-09-22T02:58:04.848Z,72.93
2018-09-22T03:00:33.431Z,71.74
2018-09-22T03:03:02.284Z,72.00
2018-09-22T03:05:30.908Z,71.20
2018-09-22T03:07:59.511Z,71.40
2018-09-22T03:10:28.192Z,71.14
2018-09-22T03:12:56.916Z,71.28
2018-09-22T03:15:25.604Z,71.18
2018-09-22T03:17:54.135Z,71.02
2018-09-22T03:20:22.760Z,70.75
2018-09-22T03:22:51.667Z,70.55
2018-09-22T03:25:20.243Z,70.95
2018-09-22T03:27:48.832Z,70.32
2018-09-22T03:30:17.425Z,70.34
2018-09-22T03:32:46.004Z,68.77
2018-09-22T03:35:14.618Z,70.05
2018-09-22T03:37:43.200Z,69.52
2018-09-22T03:40:11.818Z,69.01
2018-09-22T03:42:40.401Z,69.82
2018-09-22T03:45:09.052Z,70.20
2018-09-22T03:47:37.658Z,68.42
2018-09-22T03:50:06.300Z,69.39
2018-09-22T03:52:34.888Z,70.56
2018-09-22T03:55:03.553Z,71.94
2018-09-22T03:57:32.209Z,73.79
2018-09-22T04:00:00.838Z,73.02
2018-09-22T04:02:29.465Z,73.74
2018-09-22T04:04:58.088Z,74.21
2018-09-22T04:07:33.372Z,74.41
2018-09-22T04:10:01.929Z,74.35
2018-09-22T04:12:30.518Z,73.64
2018-09-22T04:14:59.140Z,74.06
2018-09-22T04:17:27.769Z,72.36
2018-09-22T04:19:56.342Z,74.94
2018-09-22T04:22:24.961Z,74.17
2018-09-22T04:24:53.545Z,74.91
2018-09-22T04:27:22.285Z,73.23
2018-09-22T04:29:50.878Z,74.21
2018-09-22T04:32:19.499Z,74.71
2018-09-22T04:34:48.083Z,74.84
2018-09-22T04:37:16.689Z,74.61
2018-09-22T04:39:45.303Z,75.49
2018-09-22T04:42:13.901Z,75.32
2018-09-22T04:44:42.486Z,74.92
2018-09-22T04:47:11.105Z,76.99
2018-09-22T04:49:39.738Z,76.00
2018-09-22T04:52:08.744Z,76.92
2018-09-22T04:54:37.341Z,76.79
2018-09-22T04:57:05.950Z,77.02
2018-09-22T04:59:34.587Z,77.69
2018-09-22T05:02:03.190Z,79.33
2018-09-22T05:04:31.755Z,80.82
2018-09-22T05:07:00.395Z,82.63
2018-09-22T05:09:28.977Z,82.84
2018-09-22T05:11:57.582Z,82.42
2018-09-22T05:14:26.190Z,82.83
2018-09-22T05:16:54.835Z,82.30
2018-09-22T05:19:23.450Z,82.19
2018-09-22T05:21:52.054Z,83.14
2018-09-22T05:24:20.629Z,83.33
2018-09-22T05:26:49.308Z,84.17
2018-09-22T05:29:17.914Z,83.40
2018-09-22T05:31:46.650Z,83.90
2018-09-22T05:34:15.258Z,85.75
2018-09-22T05:36:43.862Z,85.61
2018-09-22T05:39:12.701Z,86.94
2018-09-22T05:41:41.388Z,86.44
2018-09-22T05:44:10.069Z,87.47
2018-09-22T05:46:38.674Z,87.02
2018-09-22T05:49:07.269Z,87.34
2018-09-22T05:51:35.876Z,86.86
2018-09-22T05:54:04.495Z,86.95
2018-09-22T05:56:33.122Z,88.26
2018-09-22T05:59:01.779Z,87.07
2018-09-22T06:01:30.422Z,85.45
2018-09-22T06:03:59.167Z,85.91
2018-09-22T06:06:27.663Z,85.44
2018-09-22T06:08:56.267Z,84.41
2018-09-22T06:11:24.886Z,83.73
2018-09-22T06:13:53.492Z,83.46
2018-09-22T06:16:22.223Z,83.44
2018-09-22T06:18:50.887Z,84.13
2018-09-22T06:21:19.513Z,84.50
2018-09-22T06:23:48.099Z,83.38
2018-09-22T06:26:17.182Z,84.09
2018-09-22T06:28:45.772Z,82.50
2018-09-22T06:31:14.435Z,83.10
2018-09-22T06:33:43.071Z,83.84
2018-09-22T06:36:13.626Z,82.65
2018-09-22T06:38:42.189Z,83.10
2018-09-22T06:41:10.859Z,83.05
2018-09-22T06:43:39.590Z,83.36
2018-09-22T06:46:08.752Z,82.85
2018-09-22T06:48:37.361Z,81.69
2018-09-22T06:51:05.988Z,82.54
2018-09-22T06:53:34.759Z,82.01
2018-09-22T06:56:03.329Z,81.31
2018-09-22T06:58:32.001Z,81.74
2018-09-22T07:01:00.600Z,81.66
2018-09-22T07:03:29.229Z,80.04
2018-09-22T07:05:57.801Z,80.48
2018-09-22T07:08:26.400Z,80.34
2018-09-22T07:10:55.005Z,79.73
2018-09-22T07:13:23.588Z,79.38
2018-09-22T07:15:52.214Z,78.69
2018-09-22T07:18:21.021Z,78.11
2018-09-22T07:20:54.710Z,77.97
2018-09-22T07:23:23.364Z,76.70
2018-09-22T07:25:51.954Z,77.33
2018-09-22T07:28:20.845Z,76.33
2018-09-22T07:30:50.141Z,76.60
2018-09-22T07:33:18.720Z,76.15
2018-09-22T07:35:47.357Z,75.85
2018-09-22T07:38:15.977Z,77.15
2018-09-22T07:40:44.599Z,76.43
2018-09-22T07:43:13.260Z,76.93
2018-09-22T07:45:41.908Z,76.41
2018-09-22T07:48:10.534Z,77.28
2018-09-22T07:50:39.149Z,75.72
2018-09-22T07:53:07.758Z,75.22
2018-09-22T07:55:36.367Z,75.47
2018-09-22T07:58:04.986Z,74.95
2018-09-22T08:00:33.660Z,74.93
2018-09-22T08:03:02.227Z,75.29
2018-09-22T08:05:30.834Z,74.14
2018-09-22T08:07:59.502Z,72.61
2018-09-22T08:10:28.115Z,73.21
2018-09-22T08:12:56.726Z,72.46
2018-09-22T08:15:25.490Z,71.73
2018-09-22T08:17:54.073Z,71.76
2018-09-22T08:20:22.642Z,71.26
2018-09-22T08:22:51.273Z,71.71
2018-09-22T08:25:19.997Z,71.37
2018-09-22T08:27:48.569Z,69.98
2018-09-22T08:30:17.181Z,69.26
2018-09-22T08:32:45.755Z,69.57
2018-09-22T08:35:14.428Z,69.45
2018-09-22T08:37:43.015Z,67.67
2018-09-22T08:40:11.694Z,67.77
2018-09-22T08:42:40.325Z,67.26
2018-09-22T08:45:09.041Z,66.14
2018-09-22T08:47:38.294Z,66.73
2018-09-22T08:50:07.245Z,67.39
2018-09-22T08:52:35.827Z,66.18
2018-09-22T08:55:04.501Z,66.56
2018-09-22T08:57:33.192Z,67.42
2018-09-22T09:00:01.815Z,65.86
2018-09-22T09:02:30.521Z,66.78
2018-09-22T09:04:59.252Z,66.88
2018-09-22T09:07:27.823Z,66.19
2018-09-22T09:09:56.432Z,67.69
2018-09-22T09:12:25.058Z,66.58
2018-09-22T09:14:53.658Z,65.79
2018-09-22T09:17:22.262Z,65.71
2018-09-22T09:19:50.838Z,66.58
2018-09-22T09:22:19.442Z,65.52
2018-09-22T09:24:48.037Z,64.21
2018-09-22T09:27:16.626Z,64.18
2018-09-22T09:29:45.209Z,65.43
2018-09-22T09:32:16.885Z,64.53
2018-09-22T09:34:46.107Z,64.19
2018-09-22T09:37:14.729Z,65.45
2018-09-22T09:39:43.377Z,63.25
2018-09-22T09:42:11.970Z,63.17
2018-09-22T09:44:40.562Z,64.13
2018-09-22T09:47:09.214Z,63.03
2018-09-22T09:49:37.773Z,60.87
2018-09-22T09:52:06.459Z,60.70
2018-09-22T09:54:35.210Z,58.86
2018-09-22T09:57:03.787Z,58.49
2018-09-22T09:59:32.503Z,57.48
2018-09-22T10:02:01.231Z,57.41
2018-09-22T10:04:29.881Z,57.22
2018-09-22T10:06:58.563Z,57.21
2018-09-22T10:09:27.181Z,56.70
2018-09-22T10:11:55.834Z,55.34
2018-09-22T10:14:24.445Z,53.57
2018-09-22T10:16:53.049Z,54.62
2018-09-22T10:19:21.715Z,52.52
2018-09-22T10:21:50.351Z,52.47
2018-09-22T10:24:18.981Z,51.07
2018-09-22T10:26:47.577Z,50.28
2018-09-22T10:29:16.235Z,50.38
2018-09-22T10:31:44.962Z,50.65
2018-09-22T10:34:13.592Z,50.86
2018-09-22T10:36:42.183Z,49.49
2018-09-22T10:39:10.801Z,48.78
2018-09-22T10:41:39.380Z,49.46
2018-09-22T10:44:08.045Z,47.31
2018-09-22T10:46:36.889Z,48.19
2018-09-22T10:49:05.534Z,48.38
2018-09-22T10:51:34.138Z,48.70
2018-09-22T10:54:09.230Z,47.42
2018-09-22T10:56:38.052Z,48.42
2018-09-22T10:59:06.867Z,48.02
2018-09-22T11:01:35.554Z,48.18
2018-09-22T11:04:04.158Z,47.93
2018-09-22T11:06:32.750Z,48.98
2018-09-22T11:09:01.462Z,49.33
2018-09-22T11:11:30.073Z,49.64
2018-09-22T11:13:58.674Z,49.85
2018-09-22T11:16:27.298Z,50.10
2018-09-22T11:18:55.893Z,50.07
2018-09-22T11:21:24.514Z,49.48
2018-09-22T11:23:53.171Z,49.75
2018-09-22T11:26:21.769Z,50.95
2018-09-22T11:28:50.386Z,50.73
2018-09-22T11:31:19.036Z,50.47
2018-09-22T11:33:47.615Z,51.37
2018-09-22T11:36:16.223Z,50.60
2018-09-22T11:38:44.825Z,50.15
2018-09-22T11:41:13.429Z,50.65
2018-09-22T11:43:42.179Z,50.69
2018-09-22T11:46:10.832Z,49.71
2018-09-22T11:48:39.509Z,50.25
2018-09-22T11:51:08.160Z,48.07
2018-09-22T11:53:36.797Z,48.22
2018-09-22T11:56:05.377Z,49.07
2018-09-22T11:58:33.976Z,47.93
2018-09-22T12:01:02.590Z,48.00
2018-09-22T12:03:31.209Z,47.51
2018-09-22T12:05:59.873Z,48.58
2018-09-22T12:08:28.477Z,47.37
2018-09-22T12:10:57.087Z,47.87
2018-09-22T12:13:25.727Z,47.27
2018-09-22T12:15:54.341Z,47.18
2018-09-22T12:18:22.971Z,46.92
2018-09-22T12:20:51.587Z,46.87
2018-09-22T12:23:20.241Z,46.82
2018-09-22T12:25:48.882Z,45.37
2018-09-22T12:28:17.516Z,46.00
2018-09-22T12:30:46.197Z,46.55
2018-09-22T12:33:14.842Z,46.63
2018-09-22T12:35:43.469Z,46.69
2018-09-22T12:38:12.105Z,46.42
2018-09-22T12:40:40.736Z,45.93
2018-09-22T12:43:09.357Z,45.26
2018-09-22T12:45:38.000Z,44.87
2018-09-22T12:48:06.743Z,46.25
2018-09-22T12:50:35.311Z,46.28
2018-09-22T12:53:03.950Z,45.44
2018-09-22T12:55:32.569Z,46.25
2018-09-22T12:58:01.468Z,45.48
2018-09-22T13:00:30.057Z,44.92
2018-09-22T13:02:58.682Z,45.84
2018-09-22T13:05:27.300Z,45.42
2018-09-22T13:07:55.932Z,44.73
2018-09-22T13:10:24.535Z,45.38
2018-09-22T13:12:53.134Z,45.17
2018-09-22T13:15:21.871Z,45.21
2018-09-22T13:17:50.839Z,43.93
2018-09-22T13:20:19.471Z,44.09
2018-09-22T13:22:48.103Z,43.68
2018-09-22T13:25:16.840Z,44.22
2018-09-22T13:27:45.474Z,43.92
2018-09-22T13:30:14.093Z,44.02
2018-09-22T13:32:42.668Z,43.77
2018-09-22T13:35:11.274Z,42.88
2018-09-22T13:37:39.855Z,43.64
2018-09-22T13:40:08.479Z,44.09
2018-09-22T13:42:37.089Z,43.68
2018-09-22T13:45:05.709Z,43.12
2018-09-22T13:47:34.407Z,42.25
2018-09-22T13:50:03.000Z,42.04
2018-09-22T13:52:32.573Z,42.02
2018-09-22T13:55:01.286Z,41.47
2018-09-22T13:57:29.869Z,42.05
2018-09-22T13:59:58.448Z,41.42
2018-09-22T14:02:27.107Z,41.79
2018-09-22T14:04:55.745Z,42.01
2018-09-22T14:07:24.386Z,41.77
2018-09-22T14:09:53.137Z,40.86
2018-09-22T14:12:21.734Z,40.20
2018-09-22T14:14:50.339Z,40.81
2018-09-22T14:17:18.946Z,40.53
2018-09-22T14:19:47.574Z,39.67
2018-09-22T14:22:21.368Z,39.57
2018-09-22T14:24:50.046Z,39.12
2018-09-22T14:27:18.669Z,40.38
2018-09-22T14:29:47.403Z,40.08
2018-09-22T14:32:16.035Z,40.30
2018-09-22T14:34:44.647Z,40.25
2018-09-22T14:37:13.289Z,40.21
2018-09-22T14:39:41.926Z,39.93
2018-09-22T14:42:10.644Z,40.77
2018-09-22T14:44:39.280Z,41.83
2018-09-22T14:47:08.090Z,41.57
2018-09-22T14:49:36.730Z,42.77
2018-09-22T14:52:05.346Z,42.58
2018-09-22T14:54:34.026Z,42.45
2018-09-22T14:57:02.629Z,42.74
2018-09-22T14:59:31.446Z,42.53
2018-09-22T15:02:00.194Z,43.39
2018-09-22T15:04:28.806Z,43.78
2018-09-22T15:06:57.546Z,44.14
2018-09-22T15:09:26.165Z,43.48
2018-09-22T15:11:54.799Z,43.93
2018-09-22T15:14:23.462Z,43.68
2018-09-22T15:16:52.085Z,43.30
2018-09-22T15:19:20.920Z,43.32
2018-09-22T15:21:51.056Z,43.46
2018-09-22T15:24:21.045Z,42.61
2018-09-22T15:26:50.709Z,42.06
2018-09-22T15:32:05.304Z,42.21
2018-09-22T15:34:33.900Z,42.96
2018-09-22T15:37:02.494Z,43.38
2018-09-22T15:39:31.084Z,43.19
2018-09-22T15:41:59.965Z,43.57
2018-09-22T15:44:28.589Z,44.16
2018-09-22T15:46:57.173Z,44.87
2018-09-22T15:49:25.815Z,45.36
2018-09-22T15:51:54.397Z,45.34
2018-09-22T15:54:22.994Z,46.06
2018-09-22T15:56:51.646Z,45.47
2018-09-22T15:59:20.229Z,45.85
2018-09-22T16:01:48.892Z,46.32
2018-09-22T16:04:17.517Z,45.81
2018-09-22T16:06:46.156Z,46.45
2018-09-22T16:09:14.779Z,46.75
2018-09-22T16:11:43.414Z,46.46
2018-09-22T16:14:12.029Z,45.41
2018-09-22T16:16:40.605Z,46.32
2018-09-22T16:19:09.217Z,47.00
2018-09-22T16:21:37.837Z,46.99
2018-09-22T16:24:06.466Z,47.58
2018-09-22T16:26:35.053Z,48.24
2018-09-22T16:29:03.743Z,48.22
2018-09-22T16:31:32.331Z,49.33
2018-09-22T16:34:01.118Z,49.14
2018-09-22T16:36:29.761Z,49.18
2018-09-22T16:38:58.394Z,48.46
2018-09-22T16:41:26.981Z,49.52
2018-09-22T16:43:55.554Z,48.89
2018-09-22T16:46:24.142Z,48.94
2018-09-22T16:48:52.792Z,49.17
2018-09-22T16:51:22.262Z,49.50
2018-09-22T16:53:50.861Z,49.21
2018-09-22T16:56:19.422Z,49.63
2018-09-22T16:58:48.177Z,50.32
2018-09-22T17:01:16.764Z,51.13
2018-09-22T17:03:45.427Z,52.06
2018-09-22T17:06:14.058Z,52.28
2018-09-22T17:08:44.984Z,52.88
2018-09-22T17:11:13.714Z,53.10
2018-09-22T17:13:42.294Z,53.54
2018-09-22T17:16:10.953Z,54.20
2018-09-22T17:18:39.528Z,54.06
2018-09-22T17:21:08.158Z,54.37
2018-09-22T17:23:36.767Z,54.50
2018-09-22T17:26:05.466Z,54.78
2018-09-22T17:28:34.114Z,54.69
2018-09-22T17:31:02.751Z,55.17
2018-09-22T17:33:31.333Z,54.06
2018-09-22T17:35:59.937Z,54.30
2018-09-22T17:38:28.535Z,54.64
2018-09-22T17:40:57.979Z,54.82
2018-09-22T17:43:26.583Z,55.39
2018-09-22T17:45:55.138Z,55.38
2018-09-22T17:48:23.785Z,56.11
2018-09-22T17:50:52.380Z,56.08
2018-09-22T17:53:21.068Z,55.76
2018-09-22T17:55:49.727Z,56.03
2018-09-22T17:58:18.315Z,56.31
2018-09-22T18:00:46.924Z,56.31
2018-09-22T18:03:15.606Z,56.21
2018-09-22T18:05:44.190Z,56.41
2018-09-22T18:08:12.966Z,56.56
2018-09-22T18:10:41.578Z,56.68
2018-09-22T18:13:10.170Z,56.99
2018-09-22T18:15:38.850Z,56.87
2018-09-22T18:18:07.458Z,56.86
2018-09-22T18:20:36.050Z,57.04
2018-09-22T18:23:04.755Z,57.97
2018-09-22T18:25:33.346Z,58.37
2018-09-22T18:28:02.067Z,58.26
2018-09-22T18:30:30.657Z,59.07
2018-09-22T18:32:59.302Z,59.72
2018-09-22T18:35:27.911Z,60.08
2018-09-22T18:37:56.541Z,60.27
2018-09-22T18:40:25.116Z,59.71
2018-09-22T18:42:53.730Z,60.22
2018-09-22T18:45:22.358Z,60.36
2018-09-22T18:47:50.985Z,59.47
2018-09-22T18:50:19.630Z,59.66
2018-09-22T18:52:48.265Z,60.26
2018-09-22T18:55:17.078Z,60.92
2018-09-22T18:57:45.692Z,60.63
2018-09-22T19:00:14.376Z,59.96
2018-09-22T19:02:48.450Z,60.49
2018-09-22T19:05:17.139Z,60.64
2018-09-22T19:07:45.749Z,60.88
2018-09-22T19:10:14.374Z,60.24
2018-09-22T19:12:43.167Z,60.31
2018-09-22T19:15:16.777Z,60.95
2018-09-22T19:17:50.177Z,60.79
2018-09-22T19:20:24.634Z,60.69
2018-09-22T19:22:56.394Z,61.26
2018-09-22T19:25:27.315Z,61.23
2018-09-22T19:28:27.968Z,60.88
2018-09-22T19:30:58.864Z,61.16
2018-09-22T19:33:32.541Z,61.48
2018-09-22T19:36:05.258Z,61.45
2018-09-22T19:38:42.692Z,61.12
2018-09-22T19:41:45.041Z,61.35
2018-09-22T19:44:19.292Z,60.73
2018-09-22T19:46:53.861Z,61.18
2018-09-22T19:49:27.681Z,61.39
2018-09-22T19:52:01.064Z,61.80
2018-09-22T19:54:29.757Z,61.57
2018-09-22T19:56:58.395Z,62.12
2018-09-22T19:59:26.994Z,62.53
2018-09-22T20:01:56.172Z,62.64
2018-09-22T20:04:24.803Z,62.27
2018-09-22T20:06:53.385Z,61.80
2018-09-22T20:09:22.160Z,62.46
2018-09-22T20:11:50.761Z,62.04
2018-09-22T20:14:19.364Z,62.62
2018-09-22T20:16:47.985Z,62.58
2018-09-22T20:19:16.575Z,62.71
2018-09-22T20:21:45.153Z,62.96
2018-09-22T20:24:19.183Z,63.08
2018-09-22T20:26:47.769Z,63.19
2018-09-22T20:29:16.393Z,63.35
2018-09-22T20:31:44.981Z,62.67
2018-09-22T20:34:13.575Z,62.63
2018-09-22T20:36:42.178Z,62.27
2018-09-22T20:39:10.927Z,62.80
2018-09-22T20:41:39.505Z,62.82
2018-09-22T20:44:08.134Z,62.61
2018-09-22T20:46:36.749Z,62.69
2018-09-22T20:49:05.387Z,63.44
2018-09-22T20:51:34.082Z,64.20
2018-09-22T20:54:02.742Z,64.41
2018-09-22T20:56:31.373Z,63.87
2018-09-22T20:58:59.966Z,64.48
2018-09-22T21:01:28.573Z,65.03
2018-09-22T21:03:57.197Z,64.38
2018-09-22T21:06:25.939Z,64.25
2018-09-22T21:08:54.575Z,63.92
2018-09-22T21:11:23.143Z,64.43
2018-09-22T21:13:51.762Z,64.91
2018-09-22T21:16:20.376Z,64.96
2018-09-22T21:18:49.033Z,64.65
2018-09-22T21:21:17.602Z,63.42
2018-09-22T21:23:46.228Z,64.32
2018-09-22T21:26:14.901Z,64.78
2018-09-22T21:28:43.498Z,64.81
2018-09-22T21:31:12.069Z,64.15
2018-09-22T21:33:40.687Z,64.23
2018-09-22T21:36:09.271Z,62.04
2018-09-22T21:38:37.990Z,62.48
2018-09-22T21:41:06.616Z,62.89
2018-09-22T21:43:35.814Z,61.50
2018-09-22T21:46:04.439Z,61.35
2018-09-22T21:48:33.071Z,59.98
2018-09-22T21:51:01.661Z,59.86
2018-09-22T21:53:30.429Z,59.53
2018-09-22T21:55:59.100Z,59.24
2018-09-22T21:58:27.684Z,58.93
2018-09-22T22:00:56.287Z,58.71
2018-09-22T22:03:24.958Z,57.96
2018-09-22T22:05:53.568Z,58.26
2018-09-22T22:10:56.119Z,58.72
2018-09-22T22:13:24.744Z,58.67
2018-09-22T22:15:53.334Z,58.92
2018-09-22T22:18:21.909Z,59.43
2018-09-22T22:20:50.535Z,58.72
2018-09-22T22:23:19.185Z,58.26
2018-09-22T22:25:47.855Z,56.72
2018-09-22T22:28:16.449Z,56.84
2018-09-22T22:30:45.082Z,56.97
2018-09-22T22:33:13.680Z,56.15
2018-09-22T22:35:42.315Z,55.95
2018-09-22T22:38:10.895Z,56.54
2018-09-22T22:40:39.483Z,56.79
2018-09-22T22:43:08.114Z,57.95
2018-09-22T22:45:36.700Z,60.58
2018-09-22T22:48:05.376Z,61.80
2018-09-22T22:50:34.171Z,62.82
2018-09-22T22:53:02.784Z,62.56
2018-09-22T22:55:31.400Z,62.88
2018-09-22T22:57:59.999Z,60.25
2018-09-22T23:00:28.548Z,57.39
2018-09-22T23:02:57.162Z,60.24
2018-09-22T23:05:25.759Z,61.78
2018-09-22T23:07:54.458Z,62.28
2018-09-22T23:10:23.026Z,62.68
2018-09-22T23:12:51.660Z,63.08
2018-09-22T23:15:20.478Z,63.43
2018-09-22T23:17:49.102Z,64.21
2018-09-22T23:20:17.729Z,63.86
2018-09-22T23:22:46.326Z,64.11
2018-09-22T23:25:14.959Z,64.60
2018-09-22T23:27:43.569Z,64.20
2018-09-22T23:30:12.149Z,64.85
2018-09-22T23:32:40.741Z,64.12
2018-09-22T23:35:09.342Z,64.26
2018-09-22T23:37:38.026Z,64.36
2018-09-22T23:40:06.710Z,64.91
2018-09-22T23:42:35.319Z,64.90
2018-09-22T23:45:03.930Z,65.05
2018-09-22T23:47:32.521Z,63.22
2018-09-22T23:50:01.105Z,61.06
2018-09-22T23:52:29.726Z,57.85
2018-09-22T23:54:58.342Z,54.21
2018-09-22T23:57:26.933Z,53.82
2018-09-22T23:59:55.543Z,54.61
